Time;durP1;ratioP1;P1;durP2;ratioP2;P2;SDS_P1;SDS_P2;PMS_P1;PMS_P2;Temp;Humidity;BMP_temperature;BMP_pressure;BME280_temperature;BME280_humidity;BME280_pressure;Samples;Min_cycle;Max_cycle;Signal;HPM_P1;HPM_P2
2023/05/03 00:00:26;;;;;;;;;4.33;4.33;;;;;;;;5035732;28;45289;-78
2023/05/03 00:02:52;;;;;;;;;4.50;3.00;;;;;;;;5035685;28;47230;-79
2023/05/03 00:05:18;;;;;;;;;7.00;3.00;;;;;;;;5035795;28;45774;-78
2023/05/03 00:07:45;;;;;;;;;5.00;3.00;;;;;;;;5035916;28;45317;-79
2023/05/03 00:10:17;;;;;;;;;7.00;4.00;;;;;;;;5035882;28;45412;-80
2023/05/03 00:12:42;;;;;;;;;4.50;3.50;;;;;;;;5035338;28;45304;-80
2023/05/03 00:15:08;;;;;;;;;4.00;4.00;;;;;;;;5035300;28;45361;-78
2023/05/03 00:17:34;;;;;;;;;5.00;3.00;;;;;;;;5035826;28;45372;-80
2023/05/03 00:20:00;;;;;;;;;5.00;5.00;;;;;;;;5035572;28;45352;-82
2023/05/03 00:22:25;;;;;;;;;4.00;4.00;;;;;;;;5035601;28;47576;-78
2023/05/03 00:24:51;;;;;;;;;6.50;5.00;;;;;;;;5035650;28;45368;-79
2023/05/03 00:27:16;;;;;;;;;8.00;3.00;;;;;;;;5035800;28;45484;-79
2023/05/03 00:29:41;;;;;;;;;8.25;6.00;;;;;;;;5035476;28;45436;-79
2023/05/03 00:32:09;;;;;;;;;9.00;5.00;;;;;;;;5035339;28;47117;-79
2023/05/03 00:34:34;;;;;;;;;5.50;4.00;;;;;;;;5035375;28;45230;-79
2023/05/03 00:37:00;;;;;;;;;7.50;4.50;;;;;;;;5035696;28;45342;-79
2023/05/03 00:39:27;;;;;;;;;8.67;4.67;;;;;;;;5035482;28;45270;-78
2023/05/03 00:41:55;;;;;;;;;9.75;5.50;;;;;;;;5035124;28;46110;-79
2023/05/03 00:44:20;;;;;;;;;5.75;4.00;;;;;;;;5034998;28;45221;-79
2023/05/03 00:46:45;;;;;;;;;6.33;4.67;;;;;;;;5035642;28;45219;-79
2023/05/03 00:49:11;;;;;;;;;7.33;4.00;;;;;;;;5035405;28;45268;-78
2023/05/03 00:51:36;;;;;;;;;4.25;4.25;;;;;;;;5035207;28;46353;-79
2023/05/03 00:54:01;;;;;;;;;3.67;3.33;;;;;;;;5034975;28;45391;-79
2023/05/03 00:56:27;;;;;;;;;8.00;4.67;;;;;;;;5035306;28;45423;-79
2023/05/03 00:58:52;;;;;;;;;9.75;4.75;;;;;;;;5034913;28;45391;-79
2023/05/03 01:01:17;;;;;;;;;13.33;3.67;;;;;;;;5035369;28;45792;-78
2023/05/03 01:03:45;;;;;;;;;8.00;4.00;;;;;;;;5038673;28;45471;-79
2023/05/03 01:06:22;;;;;;;;;8.00;4.50;;;;;;;;5038849;28;45381;-80
2023/05/03 01:08:59;;;;;;;;;4.00;4.00;;;;;;;;5038666;28;45632;-80
2023/05/03 01:11:28;;;;;;;;;4.75;3.00;;;;;;;;5037859;28;46465;-82
2023/05/03 01:14:00;;;;;;;;;7.00;4.00;;;;;;;;5038224;28;45320;-80
2023/05/03 01:17:01;;;;;;;;;8.75;5.00;;;;;;;;5038455;28;45357;-79
2023/05/03 01:19:27;;;;;;;;;6.25;3.00;;;;;;;;4937979;28;45468;-79
2023/05/03 01:21:55;;;;;;;;;8.25;3.00;;;;;;;;4937680;28;46511;-79
2023/05/03 01:24:22;;;;;;;;;7.00;5.25;;;;;;;;4937847;28;45452;-79
2023/05/03 01:26:48;;;;;;;;;4.25;2.50;;;;;;;;4937784;28;45469;-79
2023/05/03 01:29:13;;;;;;;;;5.67;4.67;;;;;;;;4938054;28;45454;-79
2023/05/03 01:31:43;;;;;;;;;5.67;4.00;;;;;;;;4937676;28;46442;-79
2023/05/03 01:34:31;;;;;;;;;7.25;3.00;;;;;;;;4937547;28;45823;-79
2023/05/03 01:36:57;;;;;;;;;4.00;3.75;;;;;;;;4930027;28;45451;-79
2023/05/03 01:39:25;;;;;;;;;5.50;4.25;;;;;;;;4937623;28;45309;-79
2023/05/03 01:41:51;;;;;;;;;6.25;3.25;;;;;;;;4937390;28;46570;-79
2023/05/03 01:44:16;;;;;;;;;8.00;3.00;;;;;;;;4937617;28;45388;-78
2023/05/03 01:46:45;;;;;;;;;7.00;5.00;;;;;;;;4937887;28;45757;-79
2023/05/03 01:49:10;;;;;;;;;3.00;3.00;;;;;;;;4937664;28;45537;-78
2023/05/03 01:51:35;;;;;;;;;4.50;3.00;;;;;;;;4937424;28;45714;-79
2023/05/03 01:54:01;;;;;;;;;9.00;3.33;;;;;;;;5004796;28;45295;-79
2023/05/03 01:56:26;;;;;;;;;6.67;3.00;;;;;;;;5037639;28;45367;-79
2023/05/03 01:58:51;;;;;;;;;8.50;3.00;;;;;;;;5037824;28;45428;-79
2023/05/03 02:01:16;;;;;;;;;3.67;3.67;;;;;;;;5037806;28;46839;-79
2023/05/03 02:03:42;;;;;;;;;3.00;3.00;;;;;;;;5037740;28;45538;-78
2023/05/03 02:06:07;;;;;;;;;6.00;3.67;;;;;;;;5038031;28;45453;-79
2023/05/03 02:08:32;;;;;;;;;4.00;3.00;;;;;;;;5037857;28;45444;-79
2023/05/03 02:10:57;;;;;;;;;7.67;5.33;;;;;;;;5037176;28;46267;-78
2023/05/03 02:13:22;;;;;;;;;5.33;4.00;;;;;;;;5036157;28;45442;-79
2023/05/03 02:15:48;;;;;;;;;7.67;3.67;;;;;;;;5037802;28;45444;-79
2023/05/03 02:18:15;;;;;;;;;4.67;3.67;;;;;;;;5037598;28;45543;-79
2023/05/03 02:20:43;;;;;;;;;6.00;4.00;;;;;;;;5037317;28;47081;-79
2023/05/03 02:23:08;;;;;;;;;4.50;3.00;;;;;;;;5037377;28;45491;-79
2023/05/03 02:25:33;;;;;;;;;4.00;2.67;;;;;;;;5037232;28;45334;-79
2023/05/03 02:27:59;;;;;;;;;5.00;3.00;;;;;;;;5037487;28;45616;-78
2023/05/03 02:30:24;;;;;;;;;8.25;4.00;;;;;;;;5037099;28;47101;-80
2023/05/03 02:32:49;;;;;;;;;9.00;2.75;;;;;;;;5037231;28;45305;-79
2023/05/03 02:35:14;;;;;;;;;4.00;3.67;;;;;;;;5019623;28;45396;-79
2023/05/03 02:37:39;;;;;;;;;3.00;3.00;;;;;;;;5037342;28;45443;-80
2023/05/03 02:40:05;;;;;;;;;3.67;3.00;;;;;;;;5036680;28;46957;-79
2023/05/03 02:42:30;;;;;;;;;3.00;3.00;;;;;;;;5037023;28;45364;-79
2023/05/03 02:44:55;;;;;;;;;4.00;2.33;;;;;;;;5037314;28;45275;-79
2023/05/03 02:47:21;;;;;;;;;4.67;3.00;;;;;;;;5037305;28;45355;-80
2023/05/03 02:49:47;;;;;;;;;5.50;4.00;;;;;;;;5037053;28;46305;-80
2023/05/03 02:52:12;;;;;;;;;8.00;3.75;;;;;;;;5036996;28;45920;-79
2023/05/03 02:54:37;;;;;;;;;4.00;4.00;;;;;;;;5036904;28;45345;-79
2023/05/03 02:57:03;;;;;;;;;3.00;3.00;;;;;;;;5037010;28;45431;-79
2023/05/03 02:59:28;;;;;;;;;3.25;3.00;;;;;;;;5036585;28;46564;-79
2023/05/03 03:01:53;;;;;;;;;6.50;4.00;;;;;;;;5036673;28;45357;-79
2023/05/03 03:04:19;;;;;;;;;7.00;3.00;;;;;;;;5036924;28;45333;-79
2023/05/03 03:06:44;;;;;;;;;6.67;3.00;;;;;;;;5036983;28;45438;-80
2023/05/03 03:09:11;;;;;;;;;6.50;5.00;;;;;;;;5036272;28;46137;-79
2023/05/03 03:11:36;;;;;;;;;4.00;4.00;;;;;;;;5036638;28;45743;-80
2023/05/03 03:14:01;;;;;;;;;4.00;4.00;;;;;;;;5036695;28;45215;-79
2023/05/03 03:16:27;;;;;;;;;4.67;3.33;;;;;;;;5036611;28;45279;-79
2023/05/03 03:18:52;;;;;;;;;7.00;4.00;;;;;;;;5036518;28;45625;-79
2023/05/03 03:21:17;;;;;;;;;2.00;1.67;;;;;;;;5018509;28;45520;-79
2023/05/03 03:23:42;;;;;;;;;4.33;3.00;;;;;;;;5036376;28;45229;-79
2023/05/03 03:26:07;;;;;;;;;5.33;3.33;;;;;;;;5036214;28;45379;-78
2023/05/03 03:28:32;;;;;;;;;7.67;4.33;;;;;;;;5036313;28;45433;-79
2023/05/03 03:30:58;;;;;;;;;4.00;3.00;;;;;;;;5036474;28;45245;-80
2023/05/03 03:33:24;;;;;;;;;8.00;4.00;;;;;;;;5036402;28;45384;-79
2023/05/03 03:35:49;;;;;;;;;7.00;6.00;;;;;;;;5036311;28;45327;-80
2023/05/03 03:38:14;;;;;;;;;2.00;2.00;;;;;;;;5035774;28;46027;-79
2023/05/03 03:40:40;;;;;;;;;9.75;6.00;;;;;;;;5036300;28;45314;-79
2023/05/03 03:43:05;;;;;;;;;7.33;4.67;;;;;;;;5036340;28;45281;-79
2023/05/03 03:45:30;;;;;;;;;4.67;2.00;;;;;;;;5036291;28;45338;-79
2023/05/03 03:47:56;;;;;;;;;8.00;4.00;;;;;;;;5035938;28;46454;-79
2023/05/03 03:50:22;;;;;;;;;6.75;5.75;;;;;;;;5018105;28;45949;-80
2023/05/03 03:52:47;;;;;;;;;9.00;3.25;;;;;;;;5035836;28;45310;-79
2023/05/03 03:55:12;;;;;;;;;8.00;5.33;;;;;;;;5036109;28;45337;-79
2023/05/03 03:57:38;;;;;;;;;4.67;2.67;;;;;;;;5035864;28;45335;-79
2023/05/03 04:00:04;;;;;;;;;8.75;4.50;;;;;;;;5035756;28;45501;-79
2023/05/03 04:02:29;;;;;;;;;6.00;4.25;;;;;;;;5036085;28;45416;-79
2023/05/03 04:04:54;;;;;;;;;6.00;3.75;;;;;;;;5035911;28;45502;-79
2023/05/03 04:07:20;;;;;;;;;7.67;5.00;;;;;;;;5035379;28;46191;-79
2023/05/03 04:09:46;;;;;;;;;7.50;5.75;;;;;;;;5035664;28;45442;-79
2023/05/03 04:12:11;;;;;;;;;10.50;6.25;;;;;;;;5035702;28;45335;-79
2023/05/03 04:14:36;;;;;;;;;6.00;3.25;;;;;;;;5035760;28;45352;-79
2023/05/03 04:17:03;;;;;;;;;4.25;3.00;;;;;;;;5035651;28;45436;-78
2023/05/03 04:19:28;;;;;;;;;4.75;2.00;;;;;;;;5035825;28;45749;-79
2023/05/03 04:21:53;;;;;;;;;4.00;3.00;;;;;;;;5035244;28;45369;-79
2023/05/03 04:24:19;;;;;;;;;9.33;6.67;;;;;;;;5035795;28;45460;-80
2023/05/03 04:26:44;;;;;;;;;7.50;3.75;;;;;;;;5035548;28;45598;-80
2023/05/03 04:29:12;;;;;;;;;4.33;4.33;;;;;;;;5035633;28;45507;-79
2023/05/03 04:31:38;;;;;;;;;6.25;5.25;;;;;;;;5035758;28;45396;-79
2023/05/03 04:34:03;;;;;;;;;8.00;4.75;;;;;;;;5035586;28;45431;-79
2023/05/03 04:36:29;;;;;;;;;3.67;3.67;;;;;;;;5035722;28;46168;-79
2023/05/03 04:38:54;;;;;;;;;12.67;5.00;;;;;;;;5038866;28;45249;-79
2023/05/03 04:41:20;;;;;;;;;7.75;3.25;;;;;;;;5039162;28;45278;-79
2023/05/03 04:43:45;;;;;;;;;8.33;6.00;;;;;;;;5039135;28;45320;-79
2023/05/03 04:46:10;;;;;;;;;6.00;3.00;;;;;;;;5038779;28;47158;-79
2023/05/03 04:48:36;;;;;;;;;9.33;5.67;;;;;;;;5039237;28;45262;-79
2023/05/03 04:51:01;;;;;;;;;7.00;3.00;;;;;;;;5038664;28;45245;-79
2023/05/03 04:53:26;;;;;;;;;6.00;6.00;;;;;;;;5038993;28;45289;-80
2023/05/03 04:55:51;;;;;;;;;7.33;5.00;;;;;;;;5038957;28;46306;-80
2023/05/03 04:58:16;;;;;;;;;6.00;6.00;;;;;;;;5038778;28;45304;-80
2023/05/03 05:00:44;;;;;;;;;10.33;7.00;;;;;;;;5039223;28;45357;-80
2023/05/03 05:03:10;;;;;;;;;7.00;1.50;;;;;;;;5038879;28;45314;-79
2023/05/03 05:05:35;;;;;;;;;12.00;6.25;;;;;;;;5038117;28;46354;-79
2023/05/03 05:08:00;;;;;;;;;8.67;5.00;;;;;;;;5038942;28;45438;-80
2023/05/03 05:10:26;;;;;;;;;8.00;5.00;;;;;;;;5038533;28;45199;-80
2023/05/03 05:12:51;;;;;;;;;6.67;2.67;;;;;;;;5038623;28;45212;-79
2023/05/03 05:15:16;;;;;;;;;4.75;3.50;;;;;;;;5038521;28;45552;-79
2023/05/03 05:17:41;;;;;;;;;6.00;3.00;;;;;;;;5038502;28;45292;-79
2023/05/03 05:20:11;;;;;;;;;7.67;3.33;;;;;;;;5038411;28;45616;-79
2023/05/03 05:22:36;;;;;;;;;6.50;4.75;;;;;;;;5030677;28;45464;-79
2023/05/03 05:25:02;;;;;;;;;9.00;5.33;;;;;;;;5038401;28;45568;-79
2023/05/03 05:27:27;;;;;;;;;7.00;4.25;;;;;;;;5038249;28;45627;-79
2023/05/03 05:29:52;;;;;;;;;7.67;5.00;;;;;;;;5038515;28;45285;-79
2023/05/03 05:32:17;;;;;;;;;6.00;3.00;;;;;;;;5038203;28;45282;-79
2023/05/03 05:34:43;;;;;;;;;12.00;6.00;;;;;;;;5037892;28;45590;-80
2023/05/03 05:37:09;;;;;;;;;9.00;5.50;;;;;;;;5038204;28;45349;-79
2023/05/03 05:39:34;;;;;;;;;9.00;5.00;;;;;;;;5038308;28;45615;-79
2023/05/03 05:42:00;;;;;;;;;5.50;3.00;;;;;;;;5038298;28;45472;-79
2023/05/03 05:44:25;;;;;;;;;7.00;6.00;;;;;;;;5038009;28;45463;-79
2023/05/03 05:46:51;;;;;;;;;9.33;6.00;;;;;;;;5038135;28;45374;-79
2023/05/03 05:49:16;;;;;;;;;6.25;5.00;;;;;;;;5037828;28;45328;-79
2023/05/03 05:51:41;;;;;;;;;10.00;5.33;;;;;;;;5038093;28;45842;-79
2023/05/03 05:54:07;;;;;;;;;6.00;4.33;;;;;;;;5037751;28;46217;-79
2023/05/03 05:56:32;;;;;;;;;7.75;6.00;;;;;;;;5037966;28;45585;-79
2023/05/03 05:58:59;;;;;;;;;10.00;6.00;;;;;;;;5038056;28;45468;-80
2023/05/03 06:01:25;;;;;;;;;8.50;5.50;;;;;;;;5037621;28;45258;-79
2023/05/03 06:03:51;;;;;;;;;6.75;6.00;;;;;;;;5037774;28;45404;-79
2023/05/03 06:06:16;;;;;;;;;9.50;7.00;;;;;;;;5037691;28;45323;-79
2023/05/03 06:08:41;;;;;;;;;8.00;5.33;;;;;;;;5037889;28;45373;-79
2023/05/03 06:11:06;;;;;;;;;8.67;5.00;;;;;;;;5037856;28;45474;-79
2023/05/03 06:13:33;;;;;;;;;3.33;2.00;;;;;;;;5037322;28;47095;-79
2023/05/03 06:15:58;;;;;;;;;7.00;5.25;;;;;;;;5037158;28;45238;-79
2023/05/03 06:18:23;;;;;;;;;8.00;3.67;;;;;;;;5037822;28;45303;-80
2023/05/03 06:20:49;;;;;;;;;6.67;5.00;;;;;;;;5037765;28;45217;-80
2023/05/03 06:23:14;;;;;;;;;8.75;5.25;;;;;;;;5037229;28;46475;-79
2023/05/03 06:25:39;;;;;;;;;5.00;2.33;;;;;;;;5037476;28;45299;-79
2023/05/03 06:28:05;;;;;;;;;6.33;5.67;;;;;;;;5037660;28;45359;-79
2023/05/03 06:30:30;;;;;;;;;5.00;4.33;;;;;;;;5037190;28;45349;-79
2023/05/03 06:32:55;;;;;;;;;5.25;5.00;;;;;;;;5036987;28;46446;-79
2023/05/03 06:35:20;;;;;;;;;8.33;6.67;;;;;;;;5037321;28;45477;-80
2023/05/03 06:37:46;;;;;;;;;4.33;4.33;;;;;;;;5037540;28;45290;-79
2023/05/03 06:40:11;;;;;;;;;7.50;5.00;;;;;;;;5037480;28;45339;-79
2023/05/03 06:42:36;;;;;;;;;5.67;5.00;;;;;;;;5037144;28;45531;-79
2023/05/03 06:45:02;;;;;;;;;6.33;4.33;;;;;;;;5036872;28;45504;-79
2023/05/03 06:47:27;;;;;;;;;6.00;5.75;;;;;;;;5037348;28;45431;-80
2023/05/03 06:49:52;;;;;;;;;6.67;3.00;;;;;;;;5037261;28;45360;-79
2023/05/03 06:52:18;;;;;;;;;6.00;2.00;;;;;;;;5036961;28;46352;-79
2023/05/03 06:54:43;;;;;;;;;12.33;7.33;;;;;;;;5037056;28;45464;-80
2023/05/03 06:57:09;;;;;;;;;4.67;3.00;;;;;;;;5037039;28;45356;-79
2023/05/03 06:59:34;;;;;;;;;11.50;5.25;;;;;;;;5035963;28;45369;-79
2023/05/03 07:01:59;;;;;;;;;6.67;6.00;;;;;;;;5036860;28;45480;-80
2023/05/03 07:04:24;;;;;;;;;7.00;6.33;;;;;;;;5036874;28;45487;-79
2023/05/03 07:06:50;;;;;;;;;5.33;5.33;;;;;;;;5036971;28;45640;-79
2023/05/03 07:09:16;;;;;;;;;3.00;2.00;;;;;;;;5036856;28;45322;-79
2023/05/03 07:11:48;;;;;;;;;7.50;6.00;;;;;;;;5036608;28;45683;-79
2023/05/03 07:14:13;;;;;;;;;6.25;6.00;;;;;;;;5036403;28;45437;-80
2023/05/03 07:16:38;;;;;;;;;8.00;5.00;;;;;;;;5036973;28;45342;-79
2023/05/03 07:19:03;;;;;;;;;6.00;6.00;;;;;;;;5036766;28;45387;-79
2023/05/03 07:21:29;;;;;;;;;10.33;6.00;;;;;;;;5036644;28;45337;-80
2023/05/03 07:23:54;;;;;;;;;7.33;3.00;;;;;;;;5036590;28;45330;-79
2023/05/03 07:26:20;;;;;;;;;9.00;6.00;;;;;;;;5036502;28;45474;-80
2023/05/03 07:28:45;;;;;;;;;4.50;4.50;;;;;;;;5036362;28;45473;-79
2023/05/03 07:31:11;;;;;;;;;10.33;6.00;;;;;;;;5036455;28;45431;-79
2023/05/03 07:33:36;;;;;;;;;8.00;6.25;;;;;;;;5036167;28;45360;-80
2023/05/03 07:36:02;;;;;;;;;6.67;3.00;;;;;;;;5036586;28;45255;-80
2023/05/03 07:38:27;;;;;;;;;7.00;6.00;;;;;;;;5035486;28;45269;-79
2023/05/03 07:40:53;;;;;;;;;4.00;4.00;;;;;;;;5034888;28;47101;-79
2023/05/03 07:43:20;;;;;;;;;9.00;4.00;;;;;;;;5034497;28;45301;-79
2023/05/03 07:45:45;;;;;;;;;6.75;5.00;;;;;;;;5034903;28;45440;-80
2023/05/03 07:48:10;;;;;;;;;8.00;6.00;;;;;;;;5034966;28;45555;-80
2023/05/03 07:50:35;;;;;;;;;7.00;6.33;;;;;;;;5034629;28;46051;-80
2023/05/03 07:53:00;;;;;;;;;3.67;3.00;;;;;;;;5034544;28;45281;-80
2023/05/03 07:55:27;;;;;;;;;4.00;3.33;;;;;;;;5035008;28;45427;-80
2023/05/03 07:57:57;;;;;;;;;11.50;5.75;;;;;;;;5034304;28;45504;-79
2023/05/03 08:00:22;;;;;;;;;11.25;6.00;;;;;;;;5034476;28;45525;-80
2023/05/03 08:02:47;;;;;;;;;7.67;3.67;;;;;;;;5034537;28;45441;-79
2023/05/03 08:05:13;;;;;;;;;7.00;3.67;;;;;;;;5034584;28;45388;-79
2023/05/03 08:07:38;;;;;;;;;12.25;7.50;;;;;;;;5034464;28;45438;-80
2023/05/03 08:10:04;;;;;;;;;9.33;3.00;;;;;;;;5034172;28;46196;-79
2023/05/03 08:12:29;;;;;;;;;7.25;5.25;;;;;;;;5033759;28;45767;-79
2023/05/03 08:14:55;;;;;;;;;3.50;3.50;;;;;;;;5034260;28;45369;-79
2023/05/03 08:17:21;;;;;;;;;6.25;4.00;;;;;;;;5034458;28;45317;-79
2023/05/03 08:19:46;;;;;;;;;7.00;6.00;;;;;;;;5034135;28;45498;-80
2023/05/03 08:22:11;;;;;;;;;10.00;6.50;;;;;;;;5034289;28;45355;-79
2023/05/03 08:24:41;;;;;;;;;4.33;3.00;;;;;;;;5034469;28;45368;-80
2023/05/03 08:27:07;;;;;;;;;7.50;6.50;;;;;;;;5033971;28;45449;-80
2023/05/03 08:29:32;;;;;;;;;8.75;4.00;;;;;;;;5034110;28;46217;-79
2023/05/03 08:31:57;;;;;;;;;4.67;4.00;;;;;;;;5034093;28;45342;-79
2023/05/03 08:34:22;;;;;;;;;9.00;4.00;;;;;;;;5034053;28;45337;-80
2023/05/03 08:36:48;;;;;;;;;8.00;6.00;;;;;;;;5034389;28;45252;-79
2023/05/03 08:39:14;;;;;;;;;8.00;3.25;;;;;;;;4994313;28;1165314;-79
2023/05/03 08:41:39;;;;;;;;;6.50;4.00;;;;;;;;5035158;28;45381;-79
2023/05/03 08:44:06;;;;;;;;;6.75;4.00;;;;;;;;5035644;28;45293;-80
2023/05/03 08:46:35;;;;;;;;;8.50;4.00;;;;;;;;5035595;28;45297;-79
2023/05/03 08:49:01;;;;;;;;;8.75;5.00;;;;;;;;5035248;28;46210;-79
2023/05/03 08:51:27;;;;;;;;;7.75;4.00;;;;;;;;5035250;28;45507;-80
2023/05/03 08:53:52;;;;;;;;;4.75;4.50;;;;;;;;5017512;28;45475;-79
2023/05/03 08:56:47;;;;;;;;;8.25;5.00;;;;;;;;5035075;28;45273;-79
2023/05/03 08:59:12;;;;;;;;;7.75;4.50;;;;;;;;5013736;28;46501;-79
2023/05/03 09:01:38;;;;;;;;;3.75;3.25;;;;;;;;5035267;28;45282;-80
2023/05/03 09:04:04;;;;;;;;;7.00;5.50;;;;;;;;5035451;28;45234;-80
2023/05/03 09:06:31;;;;;;;;;5.75;3.00;;;;;;;;5035452;28;45318;-79
2023/05/03 09:08:57;;;;;;;;;9.00;4.00;;;;;;;;5035156;28;46482;-81
2023/05/03 09:11:22;;;;;;;;;6.00;4.33;;;;;;;;5034440;28;45424;-79
2023/05/03 09:13:47;;;;;;;;;5.33;4.00;;;;;;;;5035300;28;45435;-79
2023/05/03 09:16:21;;;;;;;;;5.00;5.00;;;;;;;;5035132;28;45270;-80
2023/05/03 09:18:55;;;;;;;;;5.75;4.00;;;;;;;;5035068;28;47354;-80
2023/05/03 09:21:20;;;;;;;;;6.25;5.00;;;;;;;;5035108;28;45650;-80
2023/05/03 09:23:45;;;;;;;;;9.33;4.00;;;;;;;;5019491;28;45338;-80
2023/05/03 09:26:26;;;;;;;;;6.00;4.33;;;;;;;;5038249;28;45302;-80
2023/05/03 09:28:51;;;;;;;;;6.00;4.75;;;;;;;;5038496;28;46392;-80
2023/05/03 09:31:16;;;;;;;;;5.00;3.00;;;;;;;;5038255;28;45322;-80
2023/05/03 09:33:42;;;;;;;;;4.33;2.33;;;;;;;;5038253;28;45428;-79
2023/05/03 09:36:07;;;;;;;;;4.25;2.50;;;;;;;;5038425;28;45357;-79
2023/05/03 09:38:33;;;;;;;;;4.50;3.00;;;;;;;;5037904;28;46556;-80
2023/05/03 09:41:00;;;;;;;;;8.75;5.00;;;;;;;;5037671;28;45708;-79
2023/05/03 09:43:25;;;;;;;;;7.00;5.75;;;;;;;;5038376;28;45227;-80
2023/05/03 09:45:50;;;;;;;;;5.50;3.50;;;;;;;;5038181;28;45237;-80
2023/05/03 09:48:16;;;;;;;;;6.67;4.00;;;;;;;;5020153;28;47692;-79
2023/05/03 09:50:42;;;;;;;;;8.67;3.00;;;;;;;;5038216;28;45389;-80
2023/05/03 09:53:07;;;;;;;;;3.00;3.00;;;;;;;;5038010;28;45345;-79
2023/05/03 09:55:33;;;;;;;;;4.67;4.00;;;;;;;;5037886;28;45276;-80
2023/05/03 09:57:58;;;;;;;;;4.75;4.00;;;;;;;;5037782;28;47107;-79
2023/05/03 10:00:24;;;;;;;;;10.00;3.00;;;;;;;;5037839;28;45388;-79
2023/05/03 10:02:52;;;;;;;;;6.75;4.25;;;;;;;;5038112;28;45421;-79
2023/05/03 10:05:19;;;;;;;;;5.75;2.75;;;;;;;;5037802;28;45403;-80
2023/05/03 10:07:47;;;;;;;;;4.25;3.00;;;;;;;;5037609;28;45384;-79
2023/05/03 10:10:13;;;;;;;;;7.00;4.00;;;;;;;;5037336;28;45933;-80
2023/05/03 10:12:38;;;;;;;;;10.00;4.00;;;;;;;;5037784;28;45345;-80
2023/05/03 10:15:06;;;;;;;;;5.67;3.67;;;;;;;;5037649;28;45501;-79
2023/05/03 10:17:33;;;;;;;;;4.00;3.25;;;;;;;;5037773;28;46311;-80
2023/05/03 10:20:22;;;;;;;;;7.50;4.00;;;;;;;;5037645;28;45810;-79
2023/05/03 10:23:03;;;;;;;;;8.00;4.50;;;;;;;;5024282;28;45402;-80
2023/05/03 10:25:28;;;;;;;;;5.25;3.75;;;;;;;;5037782;28;45362;-80
2023/05/03 10:28:01;;;;;;;;;7.00;3.00;;;;;;;;5037361;28;45188;-80
2023/05/03 10:30:27;;;;;;;;;5.25;4.50;;;;;;;;5037361;28;45469;-80
2023/05/03 10:32:52;;;;;;;;;2.50;2.50;;;;;;;;5037580;28;45442;-80
2023/05/03 10:35:18;;;;;;;;;3.00;2.00;;;;;;;;5036109;28;45401;-80
2023/05/03 10:37:44;;;;;;;;;7.00;4.75;;;;;;;;5036620;28;46346;-80
2023/05/03 10:40:10;;;;;;;;;5.25;3.00;;;;;;;;5037247;28;45672;-80
2023/05/03 10:42:36;;;;;;;;;4.00;3.00;;;;;;;;5037476;28;45397;-80
2023/05/03 10:45:02;;;;;;;;;4.25;3.00;;;;;;;;5037371;28;45305;-80
2023/05/03 10:47:28;;;;;;;;;3.50;2.00;;;;;;;;5037136;28;46343;-80
2023/05/03 10:50:14;;;;;;;;;4.00;3.00;;;;;;;;5037198;28;46039;-80
2023/05/03 10:52:41;;;;;;;;;5.00;2.25;;;;;;;;5019344;28;45262;-80
2023/05/03 10:55:17;;;;;;;;;9.50;3.00;;;;;;;;5037138;28;45349;-80
2023/05/03 10:57:45;;;;;;;;;5.00;3.50;;;;;;;;5036884;28;46522;-80
2023/05/03 11:00:15;;;;;;;;;5.00;2.00;;;;;;;;5036931;28;45688;-80
2023/05/03 11:02:59;;;;;;;;;6.00;3.00;;;;;;;;5037150;28;45453;-80
2023/05/03 11:05:26;;;;;;;;;4.75;2.00;;;;;;;;5037090;28;45250;-80
2023/05/03 11:07:52;;;;;;;;;9.00;4.00;;;;;;;;5036490;28;45518;-81
2023/05/03 11:10:18;;;;;;;;;6.00;3.75;;;;;;;;5036830;28;45446;-80
2023/05/03 11:12:43;;;;;;;;;5.75;3.00;;;;;;;;5036790;28;45292;-79
2023/05/03 11:15:10;;;;;;;;;3.67;3.67;;;;;;;;5036719;28;45545;-80
2023/05/03 11:17:36;;;;;;;;;4.00;2.00;;;;;;;;5036544;28;45713;-80
2023/05/03 11:20:02;;;;;;;;;3.00;2.50;;;;;;;;5036712;28;45870;-80
2023/05/03 11:22:28;;;;;;;;;4.00;2.00;;;;;;;;5036370;28;45554;-80
2023/05/03 11:24:53;;;;;;;;;8.67;3.67;;;;;;;;5036735;28;45383;-80
2023/05/03 11:27:24;;;;;;;;;6.50;3.50;;;;;;;;5036289;28;46110;-81
2023/05/03 11:29:49;;;;;;;;;9.00;3.00;;;;;;;;5036690;28;45339;-80
2023/05/03 11:32:15;;;;;;;;;5.50;4.50;;;;;;;;5036501;28;45281;-80
2023/05/03 11:34:40;;;;;;;;;3.00;3.00;;;;;;;;5036537;28;45361;-80
2023/05/03 11:37:07;;;;;;;;;4.00;3.00;;;;;;;;5035791;28;45751;-80
2023/05/03 11:39:32;;;;;;;;;2.50;2.25;;;;;;;;5036312;28;45871;-80
2023/05/03 11:42:02;;;;;;;;;8.67;4.00;;;;;;;;5036547;28;45373;-81
2023/05/03 11:44:27;;;;;;;;;4.00;3.00;;;;;;;;5036430;28;45436;-80
2023/05/03 11:46:53;;;;;;;;;4.00;4.00;;;;;;;;5035858;28;45343;-80
2023/05/03 11:49:18;;;;;;;;;5.25;2.75;;;;;;;;5036322;28;45313;-80
2023/05/03 11:51:44;;;;;;;;;3.75;3.50;;;;;;;;5035902;28;45356;-81
2023/05/03 11:54:10;;;;;;;;;5.25;3.50;;;;;;;;5036280;28;45321;-81
2023/05/03 11:56:36;;;;;;;;;4.00;2.00;;;;;;;;5036194;28;46382;-81
2023/05/03 11:59:01;;;;;;;;;3.00;3.00;;;;;;;;5036050;28;45295;-80
2023/05/03 12:01:27;;;;;;;;;3.25;2.00;;;;;;;;5036115;28;45333;-81
2023/05/03 12:03:53;;;;;;;;;2.75;1.50;;;;;;;;5035941;28;45460;-83
2023/05/03 12:06:19;;;;;;;;;4.75;2.00;;;;;;;;5035995;28;45499;-81
2023/05/03 12:08:44;;;;;;;;;2.50;1.25;;;;;;;;5036014;28;45384;-81
2023/05/03 12:11:10;;;;;;;;;4.25;2.75;;;;;;;;5036031;28;45491;-81
2023/05/03 12:13:36;;;;;;;;;3.00;2.00;;;;;;;;5035838;28;45432;-81
2023/05/03 12:16:03;;;;;;;;;2.50;2.50;;;;;;;;5035895;28;46104;-82
2023/05/03 12:18:44;;;;;;;;;1.50;1.50;;;;;;;;5035455;28;45666;-81
2023/05/03 12:21:09;;;;;;;;;4.00;2.00;;;;;;;;5035945;28;45331;-81
2023/05/03 12:23:34;;;;;;;;;5.75;2.00;;;;;;;;5035768;28;45313;-81
2023/05/03 12:25:59;;;;;;;;;2.67;2.00;;;;;;;;5035711;28;46481;-81
2023/05/03 12:28:25;;;;;;;;;5.33;2.00;;;;;;;;5035769;28;45423;-81
2023/05/03 12:30:50;;;;;;;;;4.00;1.00;;;;;;;;5035883;28;45387;-81
2023/05/03 12:33:17;;;;;;;;;1.75;1.25;;;;;;;;5035374;28;45483;-81
2023/05/03 12:35:42;;;;;;;;;2.00;1.50;;;;;;;;5035407;28;46562;-81
2023/05/03 12:38:07;;;;;;;;;1.00;1.00;;;;;;;;5035496;28;45526;-80
2023/05/03 12:40:32;;;;;;;;;1.25;1.00;;;;;;;;5035656;28;45515;-81
2023/05/03 12:42:58;;;;;;;;;4.00;3.00;;;;;;;;5035525;28;45265;-79
2023/05/03 12:45:26;;;;;;;;;4.00;1.67;;;;;;;;5035445;28;46181;-81
2023/05/03 12:47:51;;;;;;;;;4.00;2.00;;;;;;;;5035103;28;45429;-81
2023/05/03 12:50:16;;;;;;;;;2.00;2.00;;;;;;;;5035621;28;45340;-81
2023/05/03 12:52:41;;;;;;;;;3.00;2.33;;;;;;;;5035474;28;45537;-81
2023/05/03 12:55:07;;;;;;;;;2.67;1.00;;;;;;;;5035280;28;45563;-82
2023/05/03 12:57:33;;;;;;;;;4.00;2.25;;;;;;;;5036036;28;45391;-82
2023/05/03 12:59:58;;;;;;;;;4.50;2.25;;;;;;;;5038960;28;45448;-80
2023/05/03 13:02:23;;;;;;;;;0.33;0.00;;;;;;;;5038538;28;45331;-80
2023/05/03 13:04:55;;;;;;;;;5.00;2.00;;;;;;;;5038906;28;45522;-79
2023/05/03 13:07:26;;;;;;;;;3.00;1.00;;;;;;;;5038694;28;45772;-80
2023/05/03 13:09:52;;;;;;;;;3.00;1.00;;;;;;;;5039001;28;45389;-79
2023/05/03 13:12:19;;;;;;;;;1.75;1.75;;;;;;;;5038400;28;45401;-80
2023/05/03 13:14:44;;;;;;;;;2.00;2.00;;;;;;;;5038688;28;45481;-80
2023/05/03 13:17:10;;;;;;;;;4.50;1.50;;;;;;;;5038236;28;45214;-81
2023/05/03 13:19:36;;;;;;;;;4.00;2.00;;;;;;;;5038681;28;45372;-81
2023/05/03 13:22:01;;;;;;;;;3.00;2.00;;;;;;;;5038638;28;45560;-82
2023/05/03 13:24:26;;;;;;;;;2.00;2.00;;;;;;;;5038502;28;46142;-80
2023/05/03 13:26:52;;;;;;;;;2.00;2.00;;;;;;;;5038648;28;45408;-82
2023/05/03 13:29:17;;;;;;;;;1.00;1.00;;;;;;;;5038715;28;45357;-82
2023/05/03 13:31:42;;;;;;;;;3.00;3.00;;;;;;;;5038251;28;45424;-82
2023/05/03 13:34:07;;;;;;;;;2.67;2.00;;;;;;;;5038478;28;45506;-81
2023/05/03 13:36:32;;;;;;;;;2.00;2.00;;;;;;;;5038455;28;45593;-81
2023/05/03 13:38:58;;;;;;;;;2.33;0.33;;;;;;;;5038184;28;45352;-80
2023/05/03 13:41:23;;;;;;;;;0.25;0.25;;;;;;;;5038448;28;45305;-81
2023/05/03 13:43:48;;;;;;;;;2.67;1.00;;;;;;;;5038284;28;46138;-81
2023/05/03 13:46:14;;;;;;;;;6.00;2.00;;;;;;;;5037891;28;45539;-81
2023/05/03 13:48:39;;;;;;;;;1.00;1.00;;;;;;;;5038307;28;45340;-82
2023/05/03 13:51:08;;;;;;;;;1.75;0.50;;;;;;;;5038132;28;45282;-81
2023/05/03 13:53:33;;;;;;;;;1.00;1.00;;;;;;;;5038159;28;46611;-81
2023/05/03 13:55:58;;;;;;;;;1.33;1.33;;;;;;;;5038180;28;45183;-81
2023/05/03 13:58:23;;;;;;;;;1.00;0.67;;;;;;;;5038192;28;45542;-81
2023/05/03 14:00:48;;;;;;;;;1.00;1.00;;;;;;;;5037631;28;45369;-82
2023/05/03 14:03:14;;;;;;;;;1.00;1.00;;;;;;;;5037795;28;45516;-81
2023/05/03 14:05:39;;;;;;;;;2.33;1.00;;;;;;;;5037807;28;45291;-81
2023/05/03 14:08:04;;;;;;;;;4.00;2.00;;;;;;;;5037845;28;45198;-82
2023/05/03 14:10:32;;;;;;;;;3.50;1.00;;;;;;;;5037835;28;45372;-81
2023/05/03 14:12:59;;;;;;;;;2.50;0.00;;;;;;;;5037730;28;45408;-82
2023/05/03 14:15:24;;;;;;;;;3.50;2.00;;;;;;;;5037257;28;45457;-82
2023/05/03 14:17:49;;;;;;;;;2.00;1.00;;;;;;;;5037892;28;45532;-82
2023/05/03 14:20:16;;;;;;;;;1.00;1.00;;;;;;;;5037742;28;45309;-82
2023/05/03 14:22:41;;;;;;;;;1.00;1.00;;;;;;;;5037604;28;46592;-81
2023/05/03 14:25:07;;;;;;;;;2.50;1.00;;;;;;;;5037536;28;45510;-82
2023/05/03 14:27:32;;;;;;;;;1.00;1.00;;;;;;;;5037806;28;45301;-81
2023/05/03 14:29:57;;;;;;;;;0.00;0.00;;;;;;;;5037293;28;45345;-81
2023/05/03 14:32:23;;;;;;;;;1.00;1.00;;;;;;;;5037417;28;46389;-82
2023/05/03 14:34:48;;;;;;;;;0.00;0.00;;;;;;;;5037505;28;45294;-81
2023/05/03 14:37:13;;;;;;;;;0.00;0.00;;;;;;;;5037502;28;45445;-80